Thunderstorms From: 25-05-2018 05:05 Until: 26-05-2018 05:00 warning for: Thunderstorms Level: Yellow info button

Although rather usual in this region, locally or potentially dangerous phenomena are expected. (such as local winds, summer thunderstorms, rising streams or high waves) Be aware and pay attention to the latest weather updates, especially if you carry out activities exposed to weather or close to a stream or shoreline. 


Meteo18 Weather Cam more information Meteo18 Weather Cam


warning for Thunderstorms more information blitzortung!


Rain radar more information rain snow radar


Visit our other weather sites:

Template documentation
and downloads

And another site



Weather Underground History page Text

Daily Summary for February 16, 2017 Units:  Metric    English   Both
« Previous Day
Next Day »
Daily Weekly Monthly Yearly Custom
  High: Low: Average:
Temperature: -17.8 °C -16 °C -13.3 °C
Dew Point: -17.8 °C -16.5 °C -14.1 °C
Humidity: Humidity % 79 % 91 %
Wind Speed: 0 km/h 0 km/h 2.4 km/h
Wind Gust: 0 km/h - -
Wind:- - SW
Pressure: 0 hPa 34889.3 hPa -
Precipitation: 45.72 mm    
Historical Graphs
 
 
Tabular Data for February 16, 2017
Time Temperature Dew Point Pressure Wind Wind Speed Wind Gust Humidity Rainfall Rate (Hourly)
-17.8 °C -17.8 °C 0 hPa Calm     Humidity % 0 mm
00:02 -13.8 °C -14.7 °C 34990.9 hPa Calm   5.1 km/h 89 % 0 mm
00:12 -13.6 °C -14.5 °C 34990.9 hPa Calm   5.1 km/h 89 % 0 mm
00:17 -13.6 °C -14.4 °C 34990.9 hPa Calm   2.6 km/h 90 % 0 mm
00:22 -13.6 °C -14.5 °C 34990.9 hPa Calm     89 % 0 mm
00:27 -13.7 °C -14.7 °C 34990.9 hPa Calm     89 % 0 mm
00:32 -13.8 °C -14.8 °C 34990.9 hPa WNW 2.6 km/h 2.6 km/h 89 % 0 mm
00:37 -14.1 °C -15.1 °C 34990.9 hPa Calm   2.6 km/h 89 % 0 mm
00:42 -14.1 °C -14.7 °C 34990.9 hPa Calm   2.6 km/h 92 % 0 mm
00:47 -13.8 °C -14.4 °C 34990.9 hPa Calm   2.6 km/h 93 % 0 mm
00:52 -13.8 °C -14.7 °C 35001.1 hPa WNW 2.6 km/h 2.6 km/h 90 % 0 mm
00:57 -14 °C -14.8 °C 35001.1 hPa WNW 2.6 km/h 2.6 km/h 91 % 0 mm
01:02 -14.1 °C -14.8 °C 35001.1 hPa WNW 2.6 km/h 2.6 km/h 91 % 0 mm
01:07 -14.2 °C -15.1 °C 35001.1 hPa West 2.6 km/h 2.6 km/h 90 % 0 mm
01:12 -14.3 °C -14.9 °C 35001.1 hPa WNW 2.6 km/h 2.6 km/h 92 % 0 mm
01:17 -14.1 °C -14.6 °C 34990.9 hPa Calm   5.1 km/h 94 % 0 mm
01:22 -13.7 °C -14.4 °C 34990.9 hPa Calm   5.1 km/h 92 % 0 mm
01:27 -13.7 °C -14.6 °C 34990.9 hPa Calm   5.1 km/h 90 % 0 mm
01:32 -13.8 °C -14.7 °C 34990.9 hPa Calm   2.6 km/h 90 % 0 mm
01:42 -14.2 °C -15.1 °C 34990.9 hPa Calm   2.6 km/h 90 % 0 mm
01:47 -14.4 °C -15.2 °C 35001.1 hPa Calm     91 % 0 mm
01:52 -14.4 °C -15.1 °C 34990.9 hPa Calm     92 % 0 mm
02:02 -14.6 °C -15.3 °C 35001.1 hPa Calm   2.6 km/h 92 % 0 mm
02:07 -14.6 °C -15.1 °C 34990.9 hPa Calm   2.6 km/h 93 % 0 mm
02:22 -14.7 °C -15.3 °C 34990.9 hPa WNW 5.1 km/h 5.1 km/h 92 % 0 mm
02:32 -14.6 °C -15 °C 35001.1 hPa Calm   5.1 km/h 95 % 0 mm
02:42 -14.6 °C -15.1 °C 35001.1 hPa Calm   5.1 km/h 93 % 0 mm
02:52 -14.7 °C -15.2 °C 35001.1 hPa Calm   2.6 km/h 93 % 0 mm
02:57 -14.8 °C -15.3 °C 34990.9 hPa Calm   2.6 km/h 94 % 0 mm
03:02 -14.8 °C -15.3 °C 34990.9 hPa Calm   2.6 km/h 94 % 0 mm
03:07 -14.7 °C -15.1 °C 34990.9 hPa Calm   2.6 km/h 95 % 0 mm
03:12 -14.7 °C -15.2 °C 35001.1 hPa Calm   2.6 km/h 94 % 0 mm
03:17 -14.8 °C -15.3 °C 35001.1 hPa Calm   2.6 km/h 94 % 0 mm
03:22 -14.8 °C -15.3 °C 34990.9 hPa Calm     94 % 0 mm
03:32 -14.8 °C -15.2 °C 34990.9 hPa Calm     95 % 0 mm
03:42 -14.7 °C -15 °C 34990.9 hPa NE 2.6 km/h   96 % 0 mm
03:52 -14.7 °C -15.1 °C 34990.9 hPa Calm   5.1 km/h 95 % 0 mm
03:57 -14.7 °C -15.1 °C 34990.9 hPa North 2.6 km/h 5.1 km/h 95 % 0 mm
04:02 -14.8 °C -15.2 °C 34990.9 hPa Calm   5.1 km/h 95 % 0 mm
04:12 -15.1 °C -15.4 °C 34990.9 hPa Calm   5.1 km/h 95 % 0 mm
04:22 -14.9 °C -15.3 °C 34990.9 hPa Calm   2.6 km/h 95 % 0 mm
04:27 -15.6 °C -16.3 °C 34990.9 hPa SE 2.6 km/h 2.6 km/h 91 % 0 mm
04:32 -15.9 °C -16.5 °C 34990.9 hPa Calm   7.7 km/h 93 % 0 mm
04:42 -15.6 °C -15.9 °C 34980.8 hPa Calm   7.7 km/h 96 % 0 mm
04:47 -15.5 °C -15.8 °C 34980.8 hPa Calm   2.6 km/h 96 % 0 mm
04:52 -15.4 °C -15.8 °C 34980.8 hPa Calm     96 % 0 mm
05:02 -15.2 °C -15.4 °C 34980.8 hPa Calm     97 % 0 mm
05:07 -15.2 °C -15.5 °C 34980.8 hPa Calm     96 % 0 mm
05:12 -15 °C -15.2 °C 34980.8 hPa Calm     97 % 0 mm
05:17 -15.1 °C -15.4 °C 34980.8 hPa Calm     96 % 0 mm
05:22 -15.1 °C -15.4 °C 34980.8 hPa Calm     96 % 0 mm
05:32 -15.4 °C -15.8 °C 34980.8 hPa Calm     95 % 0 mm
05:37 -15.5 °C -15.9 °C 34980.8 hPa Calm     95 % 0 mm
05:42 -15.6 °C -16 °C 34980.8 hPa SSE 5.1 km/h   95 % 0 mm
05:47 -15.8 °C -16.2 °C 34990.9 hPa Calm   5.1 km/h 95 % 0 mm
05:52 -15.9 °C -16.3 °C 34990.9 hPa South 2.6 km/h 5.1 km/h 95 % 0 mm
05:57 -16 °C -16.4 °C 34980.8 hPa SSW 2.6 km/h 5.1 km/h 95 % 0 mm
06:02 -16 °C -16.3 °C 34980.8 hPa Calm   5.1 km/h 96 % 0 mm
06:12 -15.9 °C -16.3 °C 34980.8 hPa Calm   2.6 km/h 96 % 0 mm
06:17 -15.9 °C -16.2 °C 34980.8 hPa Calm   2.6 km/h 96 % 0 mm
06:22 -15.8 °C -16 °C 34980.8 hPa Calm   2.6 km/h 97 % 0 mm
06:27 -15.8 °C -16.1 °C 34980.8 hPa Calm     96 % 0 mm
06:32 -15.8 °C -16.2 °C 34980.8 hPa Calm     96 % 0 mm
06:42 -15.8 °C -16.1 °C 34980.8 hPa Calm     96 % 0 mm
06:47 -15.7 °C -15.9 °C 34980.8 hPa Calm     97 % 0 mm
06:52 -15.6 °C -15.8 °C 34980.8 hPa Calm     97 % 0 mm
07:02 -15.4 °C -15.7 °C 34980.8 hPa SSW 5.1 km/h 5.1 km/h 97 % 0 mm
07:07 -15.4 °C -15.7 °C 34980.8 hPa Calm   5.1 km/h 97 % 0 mm
07:12 -15.5 °C -15.8 °C 34980.8 hPa Calm   5.1 km/h 96 % 0 mm
07:17 -15.5 °C -15.8 °C 34980.8 hPa Calm   5.1 km/h 96 % 0 mm
07:22 -15.6 °C -15.9 °C 34980.8 hPa Calm   2.6 km/h 96 % 0 mm
07:27 -15.5 °C -15.8 °C 34980.8 hPa Calm   2.6 km/h 96 % 0 mm
07:32 -15.5 °C -15.7 °C 34980.8 hPa Calm   2.6 km/h 97 % 0 mm
07:42 -15.3 °C -15.5 °C 34980.8 hPa Calm   2.6 km/h 97 % 0 mm
07:47 -15.3 °C -15.5 °C 34980.8 hPa Calm   2.6 km/h 97 % 0 mm
07:52 -15.3 °C -15.6 °C 34980.8 hPa Calm   2.6 km/h 97 % 0 mm
07:57 -15.3 °C -15.6 °C 34980.8 hPa Calm   2.6 km/h 97 % 0 mm
08:02 -15.4 °C -15.7 °C 34980.8 hPa Calm     96 % 0 mm
08:12 -15.4 °C -15.8 °C 34980.8 hPa Calm     96 % 0 mm
08:17 -15.4 °C -15.8 °C 34980.8 hPa Calm     96 % 0 mm
08:22 -15.3 °C -15.6 °C 34980.8 hPa Calm     97 % 0 mm
08:32 -15.2 °C -15.4 °C 34990.9 hPa Calm     97 % 0 mm
08:37 -15.3 °C -15.6 °C 34990.9 hPa Calm     96 % 0 mm
08:42 -15.3 °C -15.6 °C 34990.9 hPa Calm   2.6 km/h 96 % 0 mm
08:47 -15.3 °C -15.6 °C 34990.9 hPa Calm   2.6 km/h 96 % 0 mm
08:57 -15.2 °C -15.6 °C 34990.9 hPa Calm     96 % 0 mm
09:02 -15.1 °C -15.3 °C 34990.9 hPa Calm     97 % 0 mm
09:07 -15.1 °C -15.3 °C 34990.9 hPa Calm     97 % 0 mm
09:12 -14.9 °C -15.3 °C 34990.9 hPa Calm     96 % 0 mm
09:17 -14.9 °C -15.3 °C 34990.9 hPa Calm     96 % 0 mm
09:22 -14.9 °C -15.3 °C 34990.9 hPa Calm     96 % 0 mm
09:27 -14.9 °C -15.3 °C 34990.9 hPa Calm     96 % 0 mm
09:32 -14.9 °C -15.2 °C 34990.9 hPa Calm     96 % 0 mm
09:37 -14.8 °C -15.1 °C 34990.9 hPa Calm     96 % 0 mm
09:42 -14.7 °C -15 °C 34990.9 hPa Calm     96 % 0 mm
09:47 -14.7 °C -15 °C 34990.9 hPa Calm     96 % 0 mm
09:52 -14.6 °C -14.9 °C 34990.9 hPa Calm     96 % 0 mm
09:57 -14.6 °C -14.9 °C 34990.9 hPa Calm     96 % 0 mm
10:02 -14.5 °C -14.9 °C 34990.9 hPa Calm     95 % 0 mm
10:12 -14.3 °C -14.7 °C 34990.9 hPa Calm     96 % 0 mm
10:17 -14.2 °C -14.6 °C 34990.9 hPa Calm     95 % 0 mm
10:22 -14.1 °C -14.4 °C 34990.9 hPa Calm     95 % 0 mm
10:32 -13.8 °C -14.3 °C 34990.9 hPa Calm   5.1 km/h 94 % 0 mm
10:37 -13.7 °C -14.2 °C 34990.9 hPa Calm   5.1 km/h 94 % 0 mm
10:42 -13.6 °C -14.2 °C 34990.9 hPa SW 5.1 km/h 5.1 km/h 93 % 0 mm
10:47 -13.6 °C -14.3 °C 34990.9 hPa SSW 2.6 km/h 5.1 km/h 92 % 0 mm
10:52 -13.5 °C -14.2 °C 34990.9 hPa Calm   5.1 km/h 92 % 0 mm
11:02 -13.4 °C -14.2 °C 34980.8 hPa SSW 2.6 km/h 7.7 km/h 90 % 0 mm
11:12 -13.2 °C -14.1 °C 34980.8 hPa SW 5.1 km/h 7.7 km/h 90 % 0 mm
11:17 -13.3 °C -14.1 °C 34980.8 hPa SW 5.1 km/h 10.3 km/h 90 % 0 mm
11:22 -13.2 °C -14 °C 34980.8 hPa SSW 5.1 km/h 10.3 km/h 90 % 0 mm
11:27 -13.1 °C -13.9 °C 34980.8 hPa SSW 5.1 km/h 10.3 km/h 90 % 0 mm
11:32 -13 °C -13.8 °C 34980.8 hPa SSE 5.1 km/h 7.7 km/h 90 % 0 mm
11:42 -12.8 °C -13.8 °C 34980.8 hPa SW 7.7 km/h 10.3 km/h 89 % 0 mm
11:52 -12.7 °C -13.7 °C 34980.8 hPa SW 7.7 km/h 10.3 km/h 89 % 0 mm
11:57 -12.7 °C -13.7 °C 34980.8 hPa SSW 2.6 km/h 10.3 km/h 88 % 0 mm
12:02 -12.6 °C -13.7 °C 34980.8 hPa SSW 5.1 km/h 10.3 km/h 88 % 0 mm
12:12 -12.6 °C -13.6 °C 34980.8 hPa SSW 10.3 km/h 10.3 km/h 88 % 0 mm
12:17 -12.6 °C -13.6 °C 34980.8 hPa SSW 5.1 km/h 10.3 km/h 88 % 0 mm
12:22 -12.4 °C -13.5 °C 34980.8 hPa SSW 5.1 km/h 10.3 km/h 88 % 0 mm
12:32 -12.3 °C -13.4 °C 34980.8 hPa SSW 7.7 km/h 12.9 km/h 88 % 0 mm
12:37 -12.3 °C -13.3 °C 34980.8 hPa SSW 7.7 km/h 15.6 km/h 88 % 0 mm
12:42 -12.2 °C -13.2 °C 34980.8 hPa SSW 12.9 km/h 15.6 km/h 88 % 0 mm
12:52 -12.1 °C -13.3 °C 34967.2 hPa South 5.1 km/h 15.6 km/h 86 % 0 mm
12:57 -12 °C -13.2 °C 34967.2 hPa SSW 5.1 km/h 12.9 km/h 86 % 0 mm
13:02 -11.9 °C -13.2 °C 34967.2 hPa South 2.6 km/h 10.3 km/h 86 % 0 mm
13:12 -11.7 °C -13 °C 34957.1 hPa SSW 5.1 km/h 10.3 km/h 86 % 0 mm
13:17 -11.7 °C -13 °C 34957.1 hPa SW 5.1 km/h 10.3 km/h 85 % 0 mm
13:22 -11.6 °C -13.1 °C 34957.1 hPa South 7.7 km/h 12.9 km/h 84 % 0 mm
13:32 -11.5 °C -13.2 °C 34957.1 hPa SSW 7.7 km/h 10.3 km/h 82 % 0 mm
13:37 -11.4 °C -13.2 °C 34946.9 hPa SSW 2.6 km/h 10.3 km/h 81 % 0 mm
13:42 -11.3 °C -12.9 °C 34946.9 hPa SW 10.3 km/h 10.3 km/h 83 % 0 mm
13:47 -11.2 °C -12.8 °C 34946.9 hPa Calm   12.9 km/h 83 % 0 mm
13:52 -11.1 °C -12.9 °C 34946.9 hPa SSW 2.6 km/h 12.9 km/h 80 % 0 mm
13:57 -11 °C -12.9 °C 34946.9 hPa SSW 5.1 km/h 12.9 km/h 79 % 0 mm
14:02 -11 °C -12.8 °C 34946.9 hPa SSW 5.1 km/h 12.9 km/h 80 % 0 mm
14:07 -10.9 °C -12.8 °C 34933.4 hPa SW 7.7 km/h 18.2 km/h 80 % 0 mm
14:12 -10.8 °C -12.7 °C 34933.4 hPa SSW 12.9 km/h 18.2 km/h 80 % 0 mm
14:17 -10.8 °C -12.7 °C 34933.4 hPa SSW 7.7 km/h 18.2 km/h 80 % 0 mm
14:27 -10.6 °C -12.5 °C 34933.4 hPa South 7.7 km/h 18.2 km/h 80 % 0 mm
14:32 -10.6 °C -12.6 °C 34923.2 hPa SSW 2.6 km/h 18.2 km/h 79 % 0 mm
14:42 -10.7 °C -12.7 °C 34923.2 hPa SW 7.7 km/h 23.3 km/h 79 % 0 mm
14:47 -10.7 °C -12.6 °C 34909.7 hPa SSW 15.6 km/h 23.3 km/h 80 % 0 mm
14:52 -10.7 °C -12.7 °C 34909.7 hPa SW 12.9 km/h 20.8 km/h 79 % 0 mm
14:57 -10.8 °C -12.7 °C 34909.7 hPa SW 15.6 km/h 20.8 km/h 80 % 0 mm
15:02 -10.8 °C -12.7 °C 34909.7 hPa SW 12.9 km/h 18.2 km/h 80 % 0 mm
15:12 -10.8 °C -12.7 °C 34909.7 hPa SSW 2.6 km/h 20.8 km/h 80 % 0 mm
15:22 -10.8 °C -12.7 °C 34909.7 hPa WSW 7.7 km/h 15.6 km/h 80 % 0 mm
15:32 -10.8 °C -12.6 °C 34909.7 hPa WSW 7.7 km/h 15.6 km/h 81 % 0 mm
15:37 -10.8 °C -12.6 °C 34909.7 hPa SW 5.1 km/h 15.6 km/h 81 % 0 mm
15:42 -10.9 °C -12.7 °C 34909.7 hPa SW 5.1 km/h 18.2 km/h 81 % 0 mm
15:47 -10.9 °C -12.7 °C 34909.7 hPa SW 12.9 km/h 18.2 km/h 81 % 0 mm
15:52 -10.9 °C -12.7 °C 34909.7 hPa SW 18.2 km/h 18.2 km/h 81 % 0 mm
16:12 -11.1 °C -12.6 °C 34899.5 hPa SW 10.3 km/h 18.2 km/h 83 % 0 mm
16:17 -11.1 °C -12.6 °C 34899.5 hPa SW 12.9 km/h 18.2 km/h 83 % 0 mm
16:27 -11.1 °C -12.5 °C 34899.5 hPa SSW 10.3 km/h 18.2 km/h 84 % 0 mm
16:32 -11.1 °C -12.5 °C 34899.5 hPa SSW 2.6 km/h 15.6 km/h 84 % 0 mm
16:42 -11.1 °C -12.5 °C 34899.5 hPa SW 5.1 km/h 12.9 km/h 84 % 0 mm
16:47 -11.1 °C -12.5 °C 34899.5 hPa SW 5.1 km/h 12.9 km/h 84 % 0 mm
16:52 -11.1 °C -12.5 °C 34899.5 hPa SW 5.1 km/h 12.9 km/h 84 % 0 mm
16:57 -11.1 °C -12.4 °C 34899.5 hPa SW 5.1 km/h 12.9 km/h 85 % 0 mm
17:02 -11.1 °C -12.4 °C 34899.5 hPa SW 10.3 km/h 12.9 km/h 85 % 0 mm
17:12 -10.9 °C -12.4 °C 34899.5 hPa Calm   15.6 km/h 83 % 0 mm
17:17 -10.9 °C -12.6 °C 34899.5 hPa SW 5.1 km/h 15.6 km/h 82 % 0 mm
17:22 -10.9 °C -12.5 °C 34899.5 hPa SW 10.3 km/h 15.6 km/h 83 % 0 mm
17:32 -11.1 °C -12.5 °C 34899.5 hPa SSW 10.3 km/h 12.9 km/h 84 % 0 mm
17:42 -11.2 °C -12.7 °C 34899.5 hPa SW 5.1 km/h 15.6 km/h 84 % 0 mm
17:47 -11.2 °C -12.8 °C 34899.5 hPa SW 7.7 km/h 15.6 km/h 83 % 0 mm
17:57 -11.2 °C -12.8 °C 34899.5 hPa West 2.6 km/h 12.9 km/h 83 % 0 mm
18:02 -11.3 °C -12.8 °C 34899.5 hPa WNW 5.1 km/h 10.3 km/h 83 % 0 mm
18:12 -11.6 °C -12.9 °C 34899.5 hPa Calm   5.1 km/h 85 % 0 mm
18:17 -11.6 °C -12.9 °C 34899.5 hPa Calm   5.1 km/h 85 % 0 mm
18:22 -11.6 °C -12.9 °C 34899.5 hPa Calm   5.1 km/h 85 % 0 mm
18:32 -11.7 °C -12.9 °C 34899.5 hPa Calm   5.1 km/h 86 % 0 mm
18:37 -11.8 °C -13 °C 34899.5 hPa Calm   5.1 km/h 86 % 0 mm
18:42 -11.8 °C -12.9 °C 34899.5 hPa North 2.6 km/h 5.1 km/h 87 % 0 mm
18:52 -11.8 °C -12.9 °C 34899.5 hPa Calm   2.6 km/h 87 % 0 mm
18:57 -11.8 °C -12.9 °C 34909.7 hPa Calm   2.6 km/h 87 % 0 mm
19:02 -11.8 °C -13 °C 34909.7 hPa Calm     87 % 0 mm
19:12 -11.8 °C -12.9 °C 34909.7 hPa Calm     88 % 0 mm
19:17 -11.7 °C -12.9 °C 34909.7 hPa Calm   2.6 km/h 87 % 0 mm
19:27 -11.8 °C -12.9 °C 34909.7 hPa NNW 2.6 km/h 5.1 km/h 88 % 0 mm
19:32 -11.8 °C -13 °C 34909.7 hPa North 2.6 km/h 5.1 km/h 87 % 0 mm
19:37 -11.9 °C -12.9 °C 34909.7 hPa NNW 2.6 km/h 5.1 km/h 88 % 0 mm
19:42 -11.9 °C -13 °C 34909.7 hPa NNW 2.6 km/h 7.7 km/h 88 % 0 mm
19:47 -11.9 °C -12.8 °C 34909.7 hPa Calm   7.7 km/h 89 % 0 mm
19:57 -11.9 °C -13 °C 34909.7 hPa Calm   5.1 km/h 88 % 0 mm
20:02 -12 °C -12.9 °C 34909.7 hPa NNW 2.6 km/h 2.6 km/h 89 % 0 mm
20:12 -11.9 °C -12.8 °C 34909.7 hPa Calm   5.1 km/h 90 % 0 mm
20:17 -12 °C -12.9 °C 34909.7 hPa WNW 5.1 km/h 7.7 km/h 90 % 12.7 mm
20:22 -12.1 °C -12.8 °C 34909.7 hPa Calm   10.3 km/h 91 % 12.7 mm
20:27 -12.1 °C -12.8 °C 34909.7 hPa Calm   10.3 km/h 92 % 25.4 mm
20:37 -12.2 °C -12.8 °C 34909.7 hPa Calm   5.1 km/h 93 % 38.1 mm
20:42 -12.2 °C -12.8 °C 34909.7 hPa NW 2.6 km/h 2.6 km/h 93 % 38.1 mm
20:47 -12.2 °C -12.7 °C 34909.7 hPa North 2.6 km/h 2.6 km/h 94 % 45.72 mm
20:52 -12.3 °C -12.8 °C 34909.7 hPa Calm   5.1 km/h 94 % 45.72 mm
20:57 -12.3 °C -12.8 °C 34909.7 hPa Calm   5.1 km/h 94 % 45.72 mm
21:02 -12.3 °C -12.8 °C 34909.7 hPa South 2.6 km/h 5.1 km/h 94 % 45.72 mm
21:07 -12.4 °C -12.9 °C 34899.5 hPa Calm   5.1 km/h 94 % 45.72 mm
21:12 -12.4 °C -12.8 °C 34909.7 hPa Calm   5.1 km/h 95 % 38.1 mm
21:17 -12.4 °C -12.8 °C 34909.7 hPa Calm   5.1 km/h 95 % 38.1 mm
21:27 -12.5 °C -12.9 °C 34909.7 hPa Calm   2.6 km/h 95 % 20.32 mm
21:32 -12.5 °C -12.9 °C 34909.7 hPa Calm   2.6 km/h 95 % 12.7 mm
21:42 -12.4 °C -12.8 °C 34909.7 hPa Calm   2.6 km/h 96 % 7.62 mm
21:47 -12.4 °C -12.8 °C 34909.7 hPa Calm     96 % 0 mm
21:52 -12.5 °C -12.9 °C 34909.7 hPa NNW 5.1 km/h   95 % 0 mm
21:57 -12.6 °C -13.1 °C 34909.7 hPa Calm   5.1 km/h 95 % 0 mm
22:02 -12.7 °C -13.2 °C 34909.7 hPa Calm   5.1 km/h 95 % 0 mm
22:07 -12.8 °C -13.2 °C 34899.5 hPa Calm   5.1 km/h 95 % 0 mm
22:12 -12.8 °C -13.2 °C 34899.5 hPa NNW 2.6 km/h   96 % 0 mm
22:17 -12.9 °C -13.2 °C 34899.5 hPa Calm   2.6 km/h 96 % 0 mm
22:22 -13 °C -13.4 °C 34899.5 hPa SSW 5.1 km/h 5.1 km/h 95 % 0 mm
22:27 -13 °C -13.3 °C 34899.5 hPa Calm   5.1 km/h 96 % 0 mm
22:32 -13.1 °C -13.4 °C 34899.5 hPa Calm   5.1 km/h 96 % 0 mm
22:37 -13.1 °C -13.4 °C 34899.5 hPa Calm   5.1 km/h 96 % 0 mm
22:42 -13.1 °C -13.4 °C 34899.5 hPa Calm   5.1 km/h 96 % 0 mm
22:47 -13 °C -13.2 °C 34899.5 hPa Calm   2.6 km/h 97 % 0 mm
22:52 -13.1 °C -13.4 °C 34899.5 hPa North 2.6 km/h   96 % 0 mm
23:02 -13 °C -13.2 °C 34899.5 hPa Calm   5.1 km/h 97 % 0 mm
23:12 -12.9 °C -13.2 °C 34899.5 hPa Calm   2.6 km/h 97 % 0 mm
23:17 -12.9 °C -13.2 °C 34899.5 hPa Calm   2.6 km/h 97 % 0 mm
23:22 -12.9 °C -13.2 °C 34899.5 hPa Calm     97 % 0 mm
23:27 -12.9 °C -13.2 °C 34899.5 hPa Calm     97 % 0 mm
23:32 -12.9 °C -13.2 °C 34899.5 hPa Calm     97 % 0 mm
23:37 -13.1 °C -13.4 °C 34899.5 hPa Calm     96 % 0 mm
23:42 -13.1 °C -13.3 °C 34899.5 hPa Calm     97 % 0 mm
23:47 -13 °C -13.2 °C 34899.5 hPa Calm     97 % 0 mm
23:52 -13.1 °C -13.3 °C 34889.3 hPa Calm     97 % 0 mm
Meteo18
Compliments of Weather Underground - 4 mb

Script developed by  Jim McMurry - jmcmurry@mwt.net Adapted for the template by  Wim van der Kuil - Leuven-Template.eu

You find our weather info also at:

European Weather Network

Weather Underground

Equipment we use:

Weather-station
Davis Vue

Weather-program
Meteobridge

Weather-server
Raspberry PI 2 B+

Provider
1 and 1

Davis Vue

Meteobridge

Raspberry PI 2 B+

1 and 1